createdAt,value
2023-05-02T00:01:31.655Z,100728.78
2023-05-02T00:03:58.866Z,100713.00
2023-05-02T00:06:26.762Z,100723.84
2023-05-02T00:08:53.920Z,100723.53
2023-05-02T00:11:21.317Z,100715.44
2023-05-02T00:13:48.768Z,100724.03
2023-05-02T00:16:16.065Z,100729.19
2023-05-02T00:18:43.259Z,100723.25
2023-05-02T00:21:10.324Z,100718.06
2023-05-02T00:23:37.447Z,100718.06
2023-05-02T00:26:09.661Z,100724.47
2023-05-02T00:28:40.542Z,100711.91
2023-05-02T00:31:07.694Z,100708.03
2023-05-02T00:33:34.729Z,100702.53
2023-05-02T00:36:01.729Z,100696.25
2023-05-02T00:38:29.007Z,100704.19
2023-05-02T00:40:56.034Z,100696.59
2023-05-02T00:43:23.304Z,100698.69
2023-05-02T00:45:51.124Z,100703.34
2023-05-02T00:48:20.744Z,100703.69
2023-05-02T00:50:47.874Z,100694.81
2023-05-02T00:53:15.544Z,100697.34
2023-05-02T00:55:42.739Z,100697.69
2023-05-02T00:58:14.924Z,100700.28
2023-05-02T01:00:59.795Z,100694.97
2023-05-02T01:03:46.741Z,100699.22
2023-05-02T01:06:29.636Z,100691.66
2023-05-02T01:09:13.479Z,100694.28
2023-05-02T01:11:52.371Z,100684.97
2023-05-02T01:14:21.603Z,100682.22
2023-05-02T01:16:50.395Z,100671.59
2023-05-02T01:19:27.083Z,100675.44
2023-05-02T01:21:55.523Z,100671.91
2023-05-02T01:24:29.828Z,100671.91
2023-05-02T01:27:22.266Z,100669.53
2023-05-02T01:29:52.093Z,100671.47
2023-05-02T01:32:22.327Z,100670.50
2023-05-02T01:34:52.865Z,100667.75
2023-05-02T01:37:22.524Z,100669.41
2023-05-02T01:39:51.333Z,100653.06
2023-05-02T01:42:20.544Z,100650.31
2023-05-02T01:44:49.204Z,100660.13
2023-05-02T01:47:17.692Z,100652.13
2023-05-02T01:49:45.957Z,100652.13
2023-05-02T01:52:15.800Z,100646.53
2023-05-02T01:54:43.867Z,100634.72
2023-05-02T01:57:12.813Z,100641.97
2023-05-02T01:59:41.307Z,100640.81
2023-05-02T02:02:11.694Z,100640.81
2023-05-02T02:04:40.808Z,100637.41
2023-05-02T02:07:13.304Z,100639.13
2023-05-02T02:09:41.083Z,100643.94
2023-05-02T02:12:29.409Z,100648.97
2023-05-02T02:15:16.681Z,100639.13
2023-05-02T02:17:49.703Z,100637.66
2023-05-02T02:20:17.605Z,100639.72
2023-05-02T02:22:46.253Z,100640.50
2023-05-02T02:25:16.229Z,100639.66
2023-05-02T02:27:44.117Z,100640.31
2023-05-02T02:30:11.974Z,100634.16
2023-05-02T02:32:39.143Z,100640.63
2023-05-02T02:35:07.555Z,100631.59
2023-05-02T02:38:01.681Z,100626.91
2023-05-02T02:40:30.545Z,100628.75
2023-05-02T02:43:00.763Z,100617.31
2023-05-02T02:46:00.479Z,100620.63
2023-05-02T02:48:38.887Z,100619.38
2023-05-02T02:51:15.072Z,100622.66
2023-05-02T02:53:53.405Z,100613.50
2023-05-02T02:56:28.666Z,100613.97
2023-05-02T02:59:02.164Z,100604.59
2023-05-02T03:01:32.734Z,100603.00
2023-05-02T03:04:04.596Z,100604.47
2023-05-02T03:06:31.961Z,100604.00
2023-05-02T03:08:59.108Z,100612.59
2023-05-02T03:11:29.970Z,100614.53
2023-05-02T03:13:58.407Z,100605.16
2023-05-02T03:16:38.291Z,100591.25
2023-05-02T03:19:09.364Z,100597.53
2023-05-02T03:21:36.525Z,100603.00
2023-05-02T03:24:10.546Z,100592.34
2023-05-02T03:26:37.705Z,100600.59
2023-05-02T03:29:07.311Z,100599.13
2023-05-02T03:31:39.332Z,100597.53
2023-05-02T03:34:07.147Z,100600.25
2023-05-02T03:36:35.669Z,100599.91
2023-05-02T03:39:02.836Z,100595.09
2023-05-02T03:41:30.409Z,100601.84
2023-05-02T03:44:04.002Z,100595.44
2023-05-02T03:46:31.839Z,100602.88
2023-05-02T03:48:59.022Z,100591.13
2023-05-02T03:51:26.905Z,100602.88
2023-05-02T03:53:56.835Z,100599.91
2023-05-02T03:56:24.440Z,100601.19
2023-05-02T03:59:01.970Z,100602.78
2023-05-02T04:01:29.211Z,100609.75
2023-05-02T04:03:58.267Z,100613.97
2023-05-02T04:06:27.753Z,100601.25
2023-05-02T04:08:59.835Z,100606.63
2023-05-02T04:11:33.864Z,100604.91
2023-05-02T04:14:02.901Z,100611.06
2023-05-02T04:16:30.147Z,100607.84
2023-05-02T04:18:57.713Z,100618.38
2023-05-02T04:21:25.816Z,100620.44
2023-05-02T04:23:52.983Z,100626.19
2023-05-02T04:26:20.132Z,100623.22
2023-05-02T04:28:53.870Z,100627.34
2023-05-02T04:31:21.153Z,100628.16
2023-05-02T04:33:53.595Z,100617.31
2023-05-02T04:36:26.383Z,100625.00
2023-05-02T04:38:53.812Z,100629.47
2023-05-02T04:41:21.765Z,100629.75
2023-05-02T04:43:54.930Z,100636.50
2023-05-02T04:46:23.144Z,100642.47
2023-05-02T04:48:50.601Z,100640.75
2023-05-02T04:51:17.849Z,100652.19
2023-05-02T04:53:48.139Z,100651.06
2023-05-02T04:56:15.435Z,100649.03
2023-05-02T04:58:42.879Z,100655.31
2023-05-02T05:01:12.029Z,100654.50
2023-05-02T05:03:40.238Z,100653.72
2023-05-02T05:06:08.632Z,100652.72
2023-05-02T05:08:35.726Z,100649.97
2023-05-02T05:11:05.249Z,100650.88
2023-05-02T05:13:33.401Z,100656.81
2023-05-02T05:16:00.551Z,100657.72
2023-05-02T05:18:31.806Z,100656.94
2023-05-02T05:20:58.934Z,100659.44
2023-05-02T05:23:26.225Z,100658.31
2023-05-02T05:25:53.310Z,100662.44
2023-05-02T05:28:20.475Z,100659.22
2023-05-02T05:30:47.753Z,100663.91
2023-05-02T05:33:19.724Z,100671.47
2023-05-02T05:35:47.182Z,100672.72
2023-05-02T05:38:14.265Z,100676.28
2023-05-02T05:40:44.053Z,100668.94
2023-05-02T05:43:12.085Z,100667.34
2023-05-02T05:45:40.004Z,100667.22
2023-05-02T05:48:07.823Z,100671.25
2023-05-02T05:50:41.160Z,100661.41
2023-05-02T05:53:08.283Z,100667.81
2023-05-02T05:55:39.642Z,100664.59
2023-05-02T05:58:08.953Z,100666.78
2023-05-02T06:00:38.635Z,100660.81
2023-05-02T06:03:09.595Z,100663.81
2023-05-02T06:05:37.960Z,100664.38
2023-05-02T06:08:05.091Z,100669.28
2023-05-02T06:10:32.988Z,100668.72
2023-05-02T06:13:00.361Z,100675.06
2023-05-02T06:15:35.234Z,100672.63
2023-05-02T06:18:04.579Z,100671.84
2023-05-02T06:20:31.662Z,100675.84
2023-05-02T06:22:59.420Z,100674.81
2023-05-02T06:25:26.413Z,100673.66
2023-05-02T06:27:53.604Z,100675.19
2023-05-02T06:30:20.977Z,100664.34
2023-05-02T06:32:48.040Z,100665.84
2023-05-02T06:35:15.392Z,100667.09
2023-05-02T06:37:42.438Z,100675.28
2023-05-02T06:40:10.291Z,100675.69
2023-05-02T06:42:37.318Z,100673.63
2023-05-02T06:45:04.795Z,100670.81
2023-05-02T06:47:33.154Z,100670.72
2023-05-02T06:50:00.629Z,100674.22
2023-05-02T06:52:29.604Z,100679.91
2023-05-02T06:54:57.066Z,100665.28
2023-05-02T06:57:25.126Z,100667.94
2023-05-02T06:59:52.271Z,100670.31
2023-05-02T07:02:19.219Z,100670.09
2023-05-02T07:04:46.921Z,100663.44
2023-05-02T07:07:15.839Z,100666.66
2023-05-02T07:09:44.067Z,100674.81
2023-05-02T07:12:11.131Z,100659.69
2023-05-02T07:14:38.156Z,100670.19
2023-05-02T07:17:05.512Z,100669.41
2023-05-02T07:19:32.778Z,100671.47
2023-05-02T07:22:00.031Z,100674.19
2023-05-02T07:24:27.129Z,100662.28
2023-05-02T07:26:54.340Z,100658.16
2023-05-02T07:29:21.375Z,100652.22
2023-05-02T07:31:48.719Z,100648.41
2023-05-02T07:34:15.870Z,100643.72
2023-05-02T07:36:43.021Z,100639.81
2023-05-02T07:39:10.447Z,100647.91
2023-05-02T07:41:37.541Z,100640.53
2023-05-02T07:44:04.672Z,100636.84
2023-05-02T07:46:31.798Z,100630.25
2023-05-02T07:48:58.923Z,100629.28
2023-05-02T07:51:26.984Z,100635.34
2023-05-02T07:53:55.975Z,100633.44
2023-05-02T07:56:22.986Z,100631.03
2023-05-02T07:58:51.707Z,100630.78
2023-05-02T08:01:19.010Z,100629.28
2023-05-02T08:03:47.330Z,100635.88
2023-05-02T08:06:14.666Z,100633.75
2023-05-02T08:08:41.861Z,100628.53
2023-05-02T08:11:08.949Z,100635.47
2023-05-02T08:13:36.186Z,100638.59
2023-05-02T08:16:03.304Z,100637.13
2023-05-02T08:18:30.420Z,100637.41
2023-05-02T08:20:58.928Z,100631.88
2023-05-02T08:23:25.974Z,100624.75
2023-05-02T08:25:53.260Z,100637.63
2023-05-02T08:28:20.257Z,100626.09
2023-05-02T08:30:47.385Z,100637.19
2023-05-02T08:33:17.769Z,100634.69
2023-05-02T08:35:44.882Z,100641.97
2023-05-02T08:38:12.073Z,100636.00
2023-05-02T08:40:42.850Z,100641.50
2023-05-02T08:43:12.288Z,100638.56
2023-05-02T08:45:42.403Z,100641.72
2023-05-02T08:48:15.154Z,100642.06
2023-05-02T08:50:46.761Z,100643.25
2023-05-02T08:53:14.857Z,100641.72
2023-05-02T08:55:43.173Z,100634.25
2023-05-02T08:58:13.271Z,100635.75
2023-05-02T09:00:42.416Z,100624.13
2023-05-02T09:03:24.092Z,100634.25
2023-05-02T09:05:57.213Z,100624.56
2023-05-02T09:08:25.073Z,100631.75
2023-05-02T09:10:52.141Z,100635.56
2023-05-02T09:13:38.360Z,100627.66
2023-05-02T09:16:12.713Z,100631.59
2023-05-02T09:18:46.943Z,100633.88
2023-05-02T09:21:21.263Z,100636.81
2023-05-02T09:23:53.964Z,100629.97
2023-05-02T09:26:35.395Z,100629.09
2023-05-02T09:29:05.555Z,100619.91
2023-05-02T09:34:12.122Z,100610.63
2023-05-02T09:36:43.304Z,100596.47
2023-05-02T09:39:13.823Z,100593.94
2023-05-02T09:41:48.514Z,100596.78
2023-05-02T09:44:21.431Z,100608.91
2023-05-02T09:46:54.173Z,100611.28
2023-05-02T09:49:46.345Z,100610.47
2023-05-02T09:52:16.066Z,100597.81
2023-05-02T09:54:47.529Z,100594.53
2023-05-02T09:57:15.097Z,100583.72
2023-05-02T09:59:52.915Z,100577.13
2023-05-02T10:02:22.170Z,100572.00
2023-05-02T10:04:51.733Z,100582.19
2023-05-02T10:07:21.406Z,100580.41
2023-05-02T10:09:52.843Z,100580.75
2023-05-02T10:12:25.003Z,100577.66
2023-05-02T10:15:00.576Z,100585.47
2023-05-02T10:17:49.597Z,100576.66
2023-05-02T10:20:23.446Z,100586.50
2023-05-02T10:22:52.068Z,100586.41
2023-05-02T10:25:19.515Z,100585.84
2023-05-02T10:27:46.855Z,100585.25
2023-05-02T10:30:14.985Z,100592.38
2023-05-02T10:32:43.979Z,100592.13
2023-05-02T10:35:12.075Z,100599.69
2023-05-02T10:37:41.317Z,100597.19
2023-05-02T10:40:12.810Z,100585.63
2023-05-02T10:42:43.836Z,100590.00
2023-05-02T10:45:36.987Z,100588.63
2023-05-02T10:48:22.964Z,100594.91
2023-05-02T10:50:55.916Z,100587.47
2023-05-02T10:53:37.025Z,100589.78
2023-05-02T10:56:22.748Z,100602.25
2023-05-02T10:58:51.533Z,100591.25
2023-05-02T11:01:36.471Z,100603.03
2023-05-02T11:04:08.544Z,100602.81
2023-05-02T11:06:38.233Z,100605.31
2023-05-02T11:09:32.385Z,100605.66
2023-05-02T11:11:59.727Z,100607.16
2023-05-02T11:14:28.139Z,100599.38
2023-05-02T11:17:00.783Z,100607.84
2023-05-02T11:19:31.444Z,100610.22
2023-05-02T11:22:22.031Z,100609.66
2023-05-02T11:24:51.173Z,100606.00
2023-05-02T11:27:30.519Z,100610.94
2023-05-02T11:29:57.743Z,100606.34
2023-05-02T11:32:27.526Z,100607.13
2023-05-02T11:34:56.151Z,100607.25
2023-05-02T11:37:23.221Z,100604.97
2023-05-02T11:39:51.704Z,100612.78
2023-05-02T11:42:32.638Z,100605.63
2023-05-02T11:45:01.593Z,100609.22
2023-05-02T11:47:29.752Z,100604.59
2023-05-02T11:49:58.000Z,100600.25
2023-05-02T11:52:25.110Z,100602.81
2023-05-02T11:54:56.990Z,100608.50
2023-05-02T11:57:24.218Z,100618.59
2023-05-02T11:59:55.340Z,100627.44
2023-05-02T12:02:39.366Z,100624.28
2023-05-02T12:05:08.260Z,100625.69
2023-05-02T12:07:39.838Z,100624.16
2023-05-02T12:10:08.470Z,100620.31
2023-05-02T12:12:36.379Z,100597.13
2023-05-02T12:15:08.631Z,100591.84
2023-05-02T12:17:40.846Z,100591.47
2023-05-02T12:20:12.655Z,100592.50
2023-05-02T12:22:40.048Z,100584.69
2023-05-02T12:25:07.951Z,100573.88
2023-05-02T12:27:35.415Z,100556.72
2023-05-02T12:30:02.960Z,100546.59
2023-05-02T12:32:35.748Z,100511.06
2023-05-02T12:35:04.031Z,100487.91
2023-05-02T12:37:31.241Z,100474.06
2023-05-02T12:39:58.497Z,100466.94
2023-05-02T12:42:26.988Z,100456.00
2023-05-02T12:44:54.157Z,100452.28
2023-05-02T12:47:23.058Z,100441.16
2023-05-02T12:49:59.300Z,100443.53
2023-05-02T12:52:50.070Z,100445.41
2023-05-02T12:55:20.020Z,100449.38
2023-05-02T12:57:47.662Z,100449.47
2023-05-02T13:00:18.379Z,100455.56
2023-05-02T13:02:45.505Z,100463.28
2023-05-02T13:05:16.708Z,100463.94
2023-05-02T13:07:44.077Z,100466.91
2023-05-02T13:10:12.311Z,100470.66
2023-05-02T13:12:40.255Z,100471.66
2023-05-02T13:15:09.094Z,100481.81
2023-05-02T13:17:36.372Z,100494.38
2023-05-02T13:20:03.835Z,100500.41
2023-05-02T13:22:31.318Z,100501.00
2023-05-02T13:24:58.364Z,100492.91
2023-05-02T13:27:25.911Z,100487.34
2023-05-02T13:29:53.142Z,100491.03
2023-05-02T13:32:20.615Z,100497.69
2023-05-02T13:34:48.213Z,100501.44
2023-05-02T13:37:15.606Z,100498.25
2023-05-02T13:39:42.695Z,100499.38
2023-05-02T13:42:10.013Z,100490.72
2023-05-02T13:44:37.010Z,100500.47
2023-05-02T13:47:04.300Z,100502.78
2023-05-02T13:49:31.700Z,100505.75
2023-05-02T13:51:58.792Z,100506.69
2023-05-02T13:54:26.335Z,100506.13
2023-05-02T13:56:53.557Z,100520.09
2023-05-02T13:59:20.570Z,100517.63
2023-05-02T14:01:47.773Z,100539.47
2023-05-02T14:04:15.051Z,100540.44
2023-05-02T14:06:42.340Z,100549.41
2023-05-02T14:09:10.008Z,100557.06
2023-05-02T14:11:37.232Z,100559.84
2023-05-02T14:14:04.260Z,100558.13
2023-05-02T14:16:31.515Z,100565.50
2023-05-02T14:18:59.039Z,100573.00
2023-05-02T14:21:26.192Z,100576.16
2023-05-02T14:23:53.177Z,100580.06
2023-05-02T14:26:20.575Z,100584.31
2023-05-02T14:28:47.634Z,100594.78
2023-05-02T14:31:14.921Z,100595.75
2023-05-02T14:33:43.588Z,100595.13
2023-05-02T14:36:10.727Z,100592.22
2023-05-02T14:38:37.795Z,100581.97
2023-05-02T14:41:06.070Z,100583.06
2023-05-02T14:43:33.196Z,100589.97
2023-05-02T14:46:00.235Z,100584.34
2023-05-02T14:48:27.416Z,100578.41
2023-05-02T14:50:54.409Z,100573.41
2023-05-02T14:53:21.650Z,100574.56
2023-05-02T14:55:48.677Z,100562.63
2023-05-02T14:58:20.776Z,100564.72
2023-05-02T15:00:48.311Z,100557.00
2023-05-02T15:03:15.728Z,100554.63
2023-05-02T15:05:43.029Z,100553.44
2023-05-02T15:08:10.218Z,100552.03
2023-05-02T15:10:38.401Z,100547.69
2023-05-02T15:13:06.182Z,100543.22
2023-05-02T15:15:33.337Z,100536.44
2023-05-02T15:18:00.484Z,100535.81
2023-05-02T15:20:27.642Z,100530.47
2023-05-02T15:22:54.826Z,100529.19
2023-05-02T15:25:21.910Z,100526.13
2023-05-02T15:27:48.956Z,100515.03
2023-05-02T15:30:17.887Z,100509.88
2023-05-02T15:32:45.133Z,100501.50
2023-05-02T15:35:12.687Z,100499.69
2023-05-02T15:37:39.782Z,100501.13
2023-05-02T15:40:07.855Z,100496.09
2023-05-02T15:42:37.261Z,100490.47
2023-05-02T15:45:04.857Z,100480.28
2023-05-02T15:47:32.801Z,100465.25
2023-05-02T15:50:00.647Z,100460.53
2023-05-02T15:52:27.951Z,100442.53
2023-05-02T15:54:56.283Z,100424.66
2023-05-02T15:57:23.416Z,100415.44
2023-05-02T15:59:50.431Z,100398.34
2023-05-02T16:02:17.637Z,100389.66
2023-05-02T16:04:44.707Z,100399.94
2023-05-02T16:07:11.847Z,100403.34
2023-05-02T16:09:39.941Z,100404.97
2023-05-02T16:12:07.468Z,100417.31
2023-05-02T16:14:35.024Z,100434.84
2023-05-02T16:17:06.437Z,100441.41
2023-05-02T16:19:33.723Z,100442.53
2023-05-02T16:22:01.499Z,100450.81
2023-05-02T16:24:28.987Z,100457.22
2023-05-02T16:26:56.639Z,100458.50
2023-05-02T16:29:24.315Z,100468.13
2023-05-02T16:31:51.730Z,100469.53
2023-05-02T16:34:19.145Z,100470.47
2023-05-02T16:36:47.122Z,100459.50
2023-05-02T16:39:14.571Z,100473.19
2023-05-02T16:41:42.436Z,100470.09
2023-05-02T16:44:10.764Z,100472.41
2023-05-02T16:46:38.311Z,100475.81
2023-05-02T16:49:06.901Z,100478.06
2023-05-02T16:51:34.251Z,100478.72
2023-05-02T16:54:01.501Z,100477.13
2023-05-02T16:56:29.545Z,100479.09
2023-05-02T16:58:56.688Z,100470.06
2023-05-02T17:01:25.115Z,100478.59
2023-05-02T17:03:52.412Z,100489.09
2023-05-02T17:06:19.566Z,100481.03
2023-05-02T17:08:46.884Z,100484.06
2023-05-02T17:11:13.918Z,100496.19
2023-05-02T17:13:42.535Z,100505.31
2023-05-02T17:16:10.039Z,100508.53
2023-05-02T17:18:37.404Z,100522.69
2023-05-02T17:21:04.793Z,100523.50
2023-05-02T17:23:31.810Z,100529.44
2023-05-02T17:25:59.046Z,100527.50
2023-05-02T17:28:26.090Z,100529.13
2023-05-02T17:30:54.814Z,100532.31
2023-05-02T17:33:22.384Z,100528.78
2023-05-02T17:35:49.546Z,100539.47
2023-05-02T17:38:16.666Z,100535.00
2023-05-02T17:40:43.736Z,100545.00
2023-05-02T17:43:11.168Z,100539.50
2023-05-02T17:45:39.656Z,100537.31
2023-05-02T17:48:06.851Z,100541.66
2023-05-02T17:50:40.960Z,100555.50
2023-05-02T17:53:08.663Z,100558.81
2023-05-02T17:55:39.480Z,100556.78
2023-05-02T17:58:06.875Z,100563.19
2023-05-02T18:00:34.016Z,100574.16
2023-05-02T18:03:01.249Z,100571.72
2023-05-02T18:05:28.299Z,100572.91
2023-05-02T18:07:56.143Z,100570.09
2023-05-02T18:10:23.150Z,100580.06
2023-05-02T18:12:50.580Z,100574.47
2023-05-02T18:15:17.748Z,100572.09
2023-05-02T18:17:44.808Z,100576.00
2023-05-02T18:20:12.333Z,100579.75
2023-05-02T18:22:40.115Z,100577.81
2023-05-02T18:25:07.801Z,100582.53
2023-05-02T18:27:35.164Z,100585.72
2023-05-02T18:30:02.619Z,100590.75
2023-05-02T18:32:31.607Z,100593.66
2023-05-02T18:34:58.771Z,100589.47
2023-05-02T18:37:31.809Z,100600.41
2023-05-02T18:39:59.224Z,100596.88
2023-05-02T18:42:26.732Z,100601.41
2023-05-02T18:44:54.008Z,100588.53
2023-05-02T18:47:21.780Z,100595.59
2023-05-02T18:49:50.370Z,100605.75
2023-05-02T18:52:17.587Z,100606.06
2023-05-02T18:54:44.725Z,100612.34
2023-05-02T18:57:12.779Z,100614.28
2023-05-02T18:59:39.837Z,100620.22
2023-05-02T19:02:07.397Z,100628.25
2023-05-02T19:04:34.596Z,100632.59
2023-05-02T19:07:01.772Z,100632.44
2023-05-02T19:09:29.016Z,100628.56
2023-05-02T19:11:56.002Z,100633.03
2023-05-02T19:14:23.322Z,100641.75
2023-05-02T19:16:51.098Z,100638.66
2023-05-02T19:19:18.716Z,100641.41
2023-05-02T19:21:47.147Z,100654.78
2023-05-02T19:24:14.309Z,100647.38
2023-05-02T19:26:42.159Z,100644.63
2023-05-02T19:29:09.491Z,100649.59
2023-05-02T19:31:37.106Z,100662.19
2023-05-02T19:34:04.199Z,100657.50
2023-05-02T19:36:32.381Z,100663.78
2023-05-02T19:38:59.550Z,100674.72
2023-05-02T19:41:26.797Z,100669.25
2023-05-02T19:43:55.790Z,100672.78
2023-05-02T19:46:23.141Z,100672.78
2023-05-02T19:48:50.587Z,100672.47
2023-05-02T19:51:27.592Z,100674.06
2023-05-02T19:53:56.972Z,100669.09
2023-05-02T19:56:25.842Z,100672.63
2023-05-02T19:58:54.132Z,100663.94
2023-05-02T20:01:21.736Z,100671.34
2023-05-02T20:03:49.153Z,100664.28
2023-05-02T20:06:16.570Z,100667.81
2023-05-02T20:08:43.679Z,100673.72
2023-05-02T20:11:11.108Z,100671.97
2023-05-02T20:13:38.521Z,100675.19
2023-05-02T20:16:05.893Z,100676.81
2023-05-02T20:18:33.003Z,100685.00
2023-05-02T20:21:00.566Z,100682.59
2023-05-02T20:23:27.968Z,100681.44
2023-05-02T20:25:55.761Z,100688.22
2023-05-02T20:28:22.887Z,100693.53
2023-05-02T20:30:50.780Z,100696.75
2023-05-02T20:33:19.493Z,100702.88
2023-05-02T20:35:56.060Z,100707.41
2023-05-02T20:38:24.395Z,100702.25
2023-05-02T20:40:51.676Z,100706.56
2023-05-02T20:43:19.084Z,100697.56
2023-05-02T20:45:47.316Z,100700.00
2023-05-02T20:48:18.368Z,100694.53
2023-05-02T20:50:54.965Z,100693.72
2023-05-02T20:53:23.933Z,100701.44
2023-05-02T20:55:51.500Z,100701.59
2023-05-02T20:58:18.566Z,100703.19
2023-05-02T21:00:52.719Z,100706.75
2023-05-02T21:03:20.699Z,100708.50
2023-05-02T21:05:52.862Z,100705.31
2023-05-02T21:08:21.964Z,100710.63
2023-05-02T21:10:49.247Z,100705.97
2023-05-02T21:13:16.572Z,100709.16
2023-05-02T21:15:43.796Z,100703.69
2023-05-02T21:18:11.628Z,100708.34
2023-05-02T21:20:41.642Z,100702.09
2023-05-02T21:23:12.313Z,100715.28
2023-05-02T21:25:39.771Z,100715.13
2023-05-02T21:28:06.812Z,100712.22
2023-05-02T21:30:34.002Z,100705.00
2023-05-02T21:33:01.061Z,100706.44
2023-05-02T21:35:28.964Z,100714.84
2023-05-02T21:37:56.023Z,100719.97
2023-05-02T21:40:23.126Z,100725.91
2023-05-02T21:42:50.175Z,100720.25
2023-05-02T21:45:17.460Z,100720.25
2023-05-02T21:47:44.656Z,100725.72
2023-05-02T21:50:11.777Z,100721.38
2023-05-02T21:52:38.970Z,100726.06
2023-05-02T21:55:06.435Z,100721.53
2023-05-02T21:57:33.537Z,100717.19
2023-05-02T22:00:00.919Z,100726.53
2023-05-02T22:02:28.602Z,100723.31
2023-05-02T22:04:57.931Z,100726.03
2023-05-02T22:07:25.219Z,100725.56
2023-05-02T22:09:52.614Z,100727.19
2023-05-02T22:12:25.682Z,100724.09
2023-05-02T22:14:52.808Z,100722.84
2023-05-02T22:17:21.753Z,100729.91
2023-05-02T22:19:50.277Z,100725.56
2023-05-02T22:22:17.286Z,100726.22
2023-05-02T22:24:44.392Z,100726.22
2023-05-02T22:27:11.441Z,100728.94
2023-05-02T22:29:38.573Z,100724.59
2023-05-02T22:32:06.029Z,100729.75
2023-05-02T22:34:33.407Z,100727.00
2023-05-02T22:37:00.537Z,100716.09
2023-05-02T22:39:27.900Z,100717.19
2023-05-02T22:41:54.914Z,100720.56
2023-05-02T22:44:21.946Z,100718.00
2023-05-02T22:46:49.161Z,100711.41
2023-05-02T22:49:16.515Z,100720.41
2023-05-02T22:51:45.420Z,100714.16
2023-05-02T22:54:15.153Z,100709.19
2023-05-02T22:56:42.322Z,100705.94
2023-05-02T22:59:10.036Z,100699.34
2023-05-02T23:01:37.252Z,100697.75
2023-05-02T23:04:04.554Z,100694.22
2023-05-02T23:06:31.892Z,100691.13
2023-05-02T23:08:58.914Z,100692.59
2023-05-02T23:11:26.115Z,100684.06
2023-05-02T23:13:53.178Z,100677.16
2023-05-02T23:16:20.415Z,100675.53
2023-05-02T23:18:47.797Z,100679.09
2023-05-02T23:21:16.372Z,100686.81
2023-05-02T23:23:43.573Z,100682.47
2023-05-02T23:26:11.151Z,100683.13
2023-05-02T23:28:38.970Z,100680.84
2023-05-02T23:31:07.106Z,100675.88
2023-05-02T23:33:36.120Z,100666.88
2023-05-02T23:36:03.948Z,100672.50
2023-05-02T23:38:31.740Z,100659.97
2023-05-02T23:40:59.011Z,100665.72
2023-05-02T23:43:26.491Z,100657.03
2023-05-02T23:45:53.501Z,100657.38
2023-05-02T23:48:20.561Z,100658.50
2023-05-02T23:50:47.882Z,100653.84
2023-05-02T23:53:14.848Z,100652.22
2023-05-02T23:55:42.018Z,100651.41
2023-05-02T23:58:08.981Z,100650.31
